An Xiu Shan — BRQV — position and weather

sailwx.info

Track history (hours):
 
Tides and Currents Weather Stations Pressure Air Temp Water Temp Dewpoint Dewpoint Depression Visibility Wind Speed Wind Dir Waves Ship Positions

An Xiu Shan

Last reported at 2016-Apr-27 07:31 UTC. Time now 2016-May-05 21:53 UTC.
Position N 20°10' E 110°03'.
Warning: this ship's position is 8 days out of date.

Length 199 m; draft 12.3 m.

Type: Cargo ship. MMSI: 413195000.

Date/timePositionNaut miles runAvg speedWind from/ knotsBaromVisibWave heightAir tempDewpointWater temp
2016-Apr-27 07:31N 20°10' E 110°03'1414.1
2016-Apr-27 06:33N 20°12' E 110°18'1313.4
2016-Apr-27 05:33N 20°15' E 110°32'1312.9
2016-Apr-27 04:31N 20°14' E 110°46'52911.0
2016-Apr-25 04:16N 24°30' E 119°06'811.1
2016-Apr-25 03:33N 24°35' E 119°13'32810.8
2016-Apr-23 21:07N 29°12' E 122°31'611.4
2016-Apr-23 20:33N 29°18' E 122°33'1211.3
2016-Apr-23 19:27N 29°30' E 122°38'2010.6
2016-Apr-23 17:31N 29°49' E 122°45'26 8.9
2016-Apr-23 14:33N 30°15' E 122°48'13 8.9
2016-Apr-23 13:04N 30°28' E 122°52'5 8.7
2016-Apr-23 12:31N 30°32' E 122°54'376 9.8
2016-Apr-21 22:20N 36°48' E 122°46'8 8.5
2016-Apr-21 21:24N 36°56' E 122°46'8 8.6
2016-Apr-21 20:31N 37°04' E 122°46'11 9.0
2016-Apr-21 19:20N 37°15' E 122°46'9 9.8
2016-Apr-21 18:25N 37°24' E 122°46'910.3
2016-Apr-21 17:33N 37°31' E 122°40'1211.7
2016-Apr-21 16:33N 37°35' E 122°26'1111.4
2016-Apr-21 15:33N 37°38' E 122°12'1111.0
2016-Apr-21 14:33N 37°42' E 121°59'1010.4
2016-Apr-21 13:33N 37°45' E 121°47'2110.3
2016-Apr-21 11:29N 37°53' E 121°22'1010.5
2016-Apr-21 10:33N 37°56' E 121°10'1111.2
2016-Apr-21 09:33N 37°58' E 120°56'1312.8
2016-Apr-21 08:33N 38°01' E 120°40'1111.0
2016-Apr-21 07:33N 38°03' E 120°27'1010.0
2016-Apr-21 06:33N 38°07' E 120°15'10 9.5
2016-Apr-21 05:33N 38°12' E 120°04'9 9.2
2016-Apr-21 04:34N 38°16' E 119°54'10 9.3
2016-Apr-21 03:28N 38°22' E 119°43'9 9.5
2016-Apr-21 02:33N 38°27' E 119°34'1110.1
2016-Apr-21 01:30N 38°33' E 119°23'13 0.5
2016-Apr-19 21:28N 38°25' E 119°37'1010.8
2016-Apr-19 20:32N 38°20' E 119°48'1111.2
2016-Apr-19 19:33N 38°15' E 119°60'1211.6
2016-Apr-19 18:34N 38°10' E 120°13'1211.8
2016-Apr-19 17:33N 38°05' E 120°27'1212.1
2016-Apr-19 16:33N 38°02' E 120°42'1312.6
2016-Apr-19 15:33N 37°60' E 120°57'1312.5
2016-Apr-19 14:33N 37°57' E 121°13'1412.0
2016-Apr-19 13:24N 37°52' E 121°29'2411.6
2016-Apr-19 11:22N 37°45' E 121°58'1212.1
2016-Apr-19 10:22N 37°43' E 122°13'1112.7
2016-Apr-19 09:33N 37°40' E 122°26'1413.2
2016-Apr-19 08:30N 37°34' E 122°41'2711.8
2016-Apr-19 06:12N 37°09' E 122°53'35710.9
2016-Apr-17 21:21N 31°13' E 122°06'1414.5
2016-Apr-17 20:21N 31°17' E 121°50'1013.1
2016-Apr-17 19:33N 31°21' E 121°39'1211.7
2016-Apr-17 18:33N 31°28' E 121°27'1110.9
2016-Apr-17 17:34N 31°35' E 121°18'1413.4
2016-Apr-17 16:32N 31°44' E 121°06'1110.9
2016-Apr-17 15:31N 31°50' E 120°54'1111.5
2016-Apr-17 14:31N 31°60' E 120°49'1211.2
2016-Apr-17 13:24N 32°01' E 120°34'1311.8
2016-Apr-17 12:18N 31°58' E 120°19'1113.0
2016-Apr-17 11:28N 31°57' E 120°06'  
Track history (hours):
 
Tides and Currents Weather Stations Pressure Air Temp Water Temp Dewpoint Dewpoint Depression Visibility Wind Speed Wind Dir Waves Ship Positions

An Xiu Shan

Last reported at 2016-Apr-27 07:31 UTC. Time now 2016-May-05 21:53 UTC.
Position N 20°10' E 110°03'.
Warning: this ship's position is 8 days out of date.

Length 199 m; draft 12.3 m.

Type: Cargo ship. MMSI: 413195000.

Date/timePositionNaut miles runAvg speedWind from/ knotsBaromVisibWave heightAir tempDewpointWater temp
2016-Apr-27 07:31N 20°10' E 110°03'1414.1
2016-Apr-27 06:33N 20°12' E 110°18'1313.4
2016-Apr-27 05:33N 20°15' E 110°32'1312.9
2016-Apr-27 04:31N 20°14' E 110°46'52911.0
2016-Apr-25 04:16N 24°30' E 119°06'811.1
2016-Apr-25 03:33N 24°35' E 119°13'32810.8
2016-Apr-23 21:07N 29°12' E 122°31'611.4
2016-Apr-23 20:33N 29°18' E 122°33'1211.3
2016-Apr-23 19:27N 29°30' E 122°38'2010.6
2016-Apr-23 17:31N 29°49' E 122°45'26 8.9
2016-Apr-23 14:33N 30°15' E 122°48'13 8.9
2016-Apr-23 13:04N 30°28' E 122°52'5 8.7
2016-Apr-23 12:31N 30°32' E 122°54'376 9.8
2016-Apr-21 22:20N 36°48' E 122°46'8 8.5
2016-Apr-21 21:24N 36°56' E 122°46'8 8.6
2016-Apr-21 20:31N 37°04' E 122°46'11 9.0
2016-Apr-21 19:20N 37°15' E 122°46'9 9.8
2016-Apr-21 18:25N 37°24' E 122°46'910.3
2016-Apr-21 17:33N 37°31' E 122°40'1211.7
2016-Apr-21 16:33N 37°35' E 122°26'1111.4
2016-Apr-21 15:33N 37°38' E 122°12'1111.0
2016-Apr-21 14:33N 37°42' E 121°59'1010.4
2016-Apr-21 13:33N 37°45' E 121°47'2110.3
2016-Apr-21 11:29N 37°53' E 121°22'1010.5
2016-Apr-21 10:33N 37°56' E 121°10'1111.2
2016-Apr-21 09:33N 37°58' E 120°56'1312.8
2016-Apr-21 08:33N 38°01' E 120°40'1111.0
2016-Apr-21 07:33N 38°03' E 120°27'1010.0
2016-Apr-21 06:33N 38°07' E 120°15'10 9.5
2016-Apr-21 05:33N 38°12' E 120°04'9 9.2
2016-Apr-21 04:34N 38°16' E 119°54'10 9.3
2016-Apr-21 03:28N 38°22' E 119°43'9 9.5
2016-Apr-21 02:33N 38°27' E 119°34'1110.1
2016-Apr-21 01:30N 38°33' E 119°23'13 0.5
2016-Apr-19 21:28N 38°25' E 119°37'1010.8
2016-Apr-19 20:32N 38°20' E 119°48'1111.2
2016-Apr-19 19:33N 38°15' E 119°60'1211.6
2016-Apr-19 18:34N 38°10' E 120°13'1211.8
2016-Apr-19 17:33N 38°05' E 120°27'1212.1
2016-Apr-19 16:33N 38°02' E 120°42'1312.6
2016-Apr-19 15:33N 37°60' E 120°57'1312.5
2016-Apr-19 14:33N 37°57' E 121°13'1412.0
2016-Apr-19 13:24N 37°52' E 121°29'2411.6
2016-Apr-19 11:22N 37°45' E 121°58'1212.1
2016-Apr-19 10:22N 37°43' E 122°13'1112.7
2016-Apr-19 09:33N 37°40' E 122°26'1413.2
2016-Apr-19 08:30N 37°34' E 122°41'2711.8
2016-Apr-19 06:12N 37°09' E 122°53'35710.9
2016-Apr-17 21:21N 31°13' E 122°06'1414.5
2016-Apr-17 20:21N 31°17' E 121°50'1013.1
2016-Apr-17 19:33N 31°21' E 121°39'1211.7
2016-Apr-17 18:33N 31°28' E 121°27'1110.9
2016-Apr-17 17:34N 31°35' E 121°18'1413.4
2016-Apr-17 16:32N 31°44' E 121°06'1110.9
2016-Apr-17 15:31N 31°50' E 120°54'1111.5
2016-Apr-17 14:31N 31°60' E 120°49'1211.2
2016-Apr-17 13:24N 32°01' E 120°34'1311.8
2016-Apr-17 12:18N 31°58' E 120°19'1113.0
2016-Apr-17 11:28N 31°57' E 120°06'  

Dump ship's entire track history